sensor_id;sensor_type;location;lat;lon;timestamp;P1;durP1;ratioP1;P2;durP2;ratioP2
45358;SDS011;31096;49.292;8.710;2022-12-05T00:00:58;26.07;;;9.40;;
45358;SDS011;31096;49.292;8.710;2022-12-05T00:05:49;20.95;;;9.77;;
45358;SDS011;31096;49.292;8.710;2022-12-05T00:10:41;23.67;;;9.47;;
45358;SDS011;31096;49.292;8.710;2022-12-05T00:15:34;21.98;;;9.20;;
45358;SDS011;31096;49.292;8.710;2022-12-05T00:20:29;22.30;;;9.90;;
45358;SDS011;31096;49.292;8.710;2022-12-05T00:25:20;24.35;;;9.70;;
45358;SDS011;31096;49.292;8.710;2022-12-05T00:30:10;26.57;;;10.63;;
45358;SDS011;31096;49.292;8.710;2022-12-05T00:35:01;27.25;;;10.65;;
45358;SDS011;31096;49.292;8.710;2022-12-05T00:39:52;23.77;;;10.53;;
45358;SDS011;31096;49.292;8.710;2022-12-05T00:44:43;24.57;;;9.50;;
45358;SDS011;31096;49.292;8.710;2022-12-05T00:49:33;28.80;;;12.02;;
45358;SDS011;31096;49.292;8.710;2022-12-05T00:54:24;27.20;;;10.67;;
45358;SDS011;31096;49.292;8.710;2022-12-05T00:59:16;31.13;;;11.63;;
45358;SDS011;31096;49.292;8.710;2022-12-05T01:04:09;23.85;;;9.88;;
45358;SDS011;31096;49.292;8.710;2022-12-05T01:09:03;25.77;;;10.80;;
45358;SDS011;31096;49.292;8.710;2022-12-05T01:13:55;25.35;;;9.27;;
45358;SDS011;31096;49.292;8.710;2022-12-05T01:18:46;24.15;;;10.93;;
45358;SDS011;31096;49.292;8.710;2022-12-05T01:23:37;26.20;;;10.40;;
45358;SDS011;31096;49.292;8.710;2022-12-05T01:28:28;28.60;;;10.05;;
45358;SDS011;31096;49.292;8.710;2022-12-05T01:33:19;28.40;;;11.00;;
45358;SDS011;31096;49.292;8.710;2022-12-05T01:38:10;30.50;;;11.93;;
45358;SDS011;31096;49.292;8.710;2022-12-05T01:43:02;30.15;;;11.32;;
45358;SDS011;31096;49.292;8.710;2022-12-05T01:47:53;30.57;;;12.27;;
45358;SDS011;31096;49.292;8.710;2022-12-05T01:52:44;24.98;;;10.73;;
45358;SDS011;31096;49.292;8.710;2022-12-05T01:57:35;27.95;;;10.80;;
45358;SDS011;31096;49.292;8.710;2022-12-05T02:02:27;32.13;;;11.03;;
45358;SDS011;31096;49.292;8.710;2022-12-05T02:07:18;27.00;;;9.75;;
45358;SDS011;31096;49.292;8.710;2022-12-05T02:12:09;28.27;;;10.53;;
45358;SDS011;31096;49.292;8.710;2022-12-05T02:17:03;27.43;;;11.30;;
45358;SDS011;31096;49.292;8.710;2022-12-05T02:37:44;27.92;;;11.18;;
45358;SDS011;31096;49.292;8.710;2022-12-05T02:43:01;29.27;;;10.90;;
45358;SDS011;31096;49.292;8.710;2022-12-05T02:47:53;27.25;;;10.77;;
45358;SDS011;31096;49.292;8.710;2022-12-05T02:52:46;28.20;;;10.88;;
45358;SDS011;31096;49.292;8.710;2022-12-05T02:57:38;22.47;;;9.37;;
45358;SDS011;31096;49.292;8.710;2022-12-05T03:02:37;23.38;;;9.57;;
45358;SDS011;31096;49.292;8.710;2022-12-05T03:07:29;24.43;;;10.00;;
45358;SDS011;31096;49.292;8.710;2022-12-05T03:12:22;27.20;;;10.55;;
45358;SDS011;31096;49.292;8.710;2022-12-05T03:17:17;24.77;;;9.40;;
45358;SDS011;31096;49.292;8.710;2022-12-05T03:22:14;25.73;;;9.33;;
45358;SDS011;31096;49.292;8.710;2022-12-05T03:27:45;26.48;;;9.75;;
45358;SDS011;31096;49.292;8.710;2022-12-05T03:32:44;25.50;;;10.00;;
45358;SDS011;31096;49.292;8.710;2022-12-05T03:37:46;25.58;;;9.77;;
45358;SDS011;31096;49.292;8.710;2022-12-05T03:48:14;25.27;;;9.90;;
45358;SDS011;31096;49.292;8.710;2022-12-05T03:53:32;28.13;;;10.00;;
45358;SDS011;31096;49.292;8.710;2022-12-05T03:58:32;26.17;;;9.67;;
45358;SDS011;31096;49.292;8.710;2022-12-05T04:03:31;26.10;;;9.63;;
45358;SDS011;31096;49.292;8.710;2022-12-05T04:08:30;21.58;;;8.88;;
45358;SDS011;31096;49.292;8.710;2022-12-05T04:13:27;26.27;;;10.20;;
45358;SDS011;31096;49.292;8.710;2022-12-05T04:18:29;29.00;;;11.05;;
45358;SDS011;31096;49.292;8.710;2022-12-05T04:23:21;25.77;;;10.57;;
45358;SDS011;31096;49.292;8.710;2022-12-05T04:28:16;24.20;;;9.73;;
45358;SDS011;31096;49.292;8.710;2022-12-05T04:33:35;25.67;;;9.93;;
45358;SDS011;31096;49.292;8.710;2022-12-05T04:38:49;22.73;;;9.40;;
45358;SDS011;31096;49.292;8.710;2022-12-05T04:43:52;23.50;;;9.23;;
45358;SDS011;31096;49.292;8.710;2022-12-05T04:48:44;28.13;;;10.73;;
45358;SDS011;31096;49.292;8.710;2022-12-05T04:53:38;26.40;;;10.05;;
45358;SDS011;31096;49.292;8.710;2022-12-05T04:58:31;31.30;;;11.80;;
45358;SDS011;31096;49.292;8.710;2022-12-05T05:08:20;25.73;;;11.18;;
45358;SDS011;31096;49.292;8.710;2022-12-05T05:13:14;22.45;;;9.75;;
45358;SDS011;31096;49.292;8.710;2022-12-05T05:18:05;25.47;;;9.57;;
45358;SDS011;31096;49.292;8.710;2022-12-05T05:22:56;27.88;;;9.57;;
45358;SDS011;31096;49.292;8.710;2022-12-05T05:27:51;23.10;;;8.93;;
45358;SDS011;31096;49.292;8.710;2022-12-05T05:32:43;17.63;;;8.02;;
45358;SDS011;31096;49.292;8.710;2022-12-05T05:37:34;27.17;;;9.53;;
45358;SDS011;31096;49.292;8.710;2022-12-05T05:42:25;25.40;;;10.90;;
45358;SDS011;31096;49.292;8.710;2022-12-05T05:47:15;28.40;;;10.93;;
45358;SDS011;31096;49.292;8.710;2022-12-05T05:52:06;25.43;;;9.67;;
45358;SDS011;31096;49.292;8.710;2022-12-05T05:56:56;27.57;;;9.60;;
45358;SDS011;31096;49.292;8.710;2022-12-05T06:01:47;29.80;;;9.67;;
45358;SDS011;31096;49.292;8.710;2022-12-05T06:06:38;27.30;;;11.18;;
45358;SDS011;31096;49.292;8.710;2022-12-05T06:11:29;28.03;;;10.73;;
45358;SDS011;31096;49.292;8.710;2022-12-05T06:16:20;24.13;;;9.00;;
45358;SDS011;31096;49.292;8.710;2022-12-05T06:21:11;29.23;;;11.73;;
45358;SDS011;31096;49.292;8.710;2022-12-05T06:26:02;25.33;;;8.27;;
45358;SDS011;31096;49.292;8.710;2022-12-05T06:30:53;24.10;;;9.32;;
45358;SDS011;31096;49.292;8.710;2022-12-05T06:35:44;25.07;;;10.60;;
45358;SDS011;31096;49.292;8.710;2022-12-05T06:40:38;26.20;;;10.00;;
45358;SDS011;31096;49.292;8.710;2022-12-05T06:45:33;22.17;;;9.43;;
45358;SDS011;31096;49.292;8.710;2022-12-05T06:50:24;28.00;;;10.57;;
45358;SDS011;31096;49.292;8.710;2022-12-05T06:55:14;21.87;;;10.43;;
45358;SDS011;31096;49.292;8.710;2022-12-05T07:00:05;19.43;;;8.27;;
45358;SDS011;31096;49.292;8.710;2022-12-05T07:05:15;22.85;;;9.32;;
45358;SDS011;31096;49.292;8.710;2022-12-05T07:10:06;16.83;;;7.53;;
45358;SDS011;31096;49.292;8.710;2022-12-05T07:14:58;17.87;;;8.50;;
45358;SDS011;31096;49.292;8.710;2022-12-05T07:19:50;19.95;;;9.07;;
45358;SDS011;31096;49.292;8.710;2022-12-05T07:24:41;19.83;;;9.55;;
45358;SDS011;31096;49.292;8.710;2022-12-05T07:29:33;23.00;;;8.60;;
45358;SDS011;31096;49.292;8.710;2022-12-05T07:34:24;22.03;;;9.57;;
45358;SDS011;31096;49.292;8.710;2022-12-05T07:39:15;21.15;;;9.02;;
45358;SDS011;31096;49.292;8.710;2022-12-05T07:44:06;17.67;;;8.60;;
45358;SDS011;31096;49.292;8.710;2022-12-05T07:48:57;20.67;;;9.07;;
45358;SDS011;31096;49.292;8.710;2022-12-05T07:53:48;18.80;;;8.27;;
45358;SDS011;31096;49.292;8.710;2022-12-05T07:58:39;17.00;;;7.63;;
45358;SDS011;31096;49.292;8.710;2022-12-05T08:03:30;18.20;;;9.27;;
45358;SDS011;31096;49.292;8.710;2022-12-05T08:08:20;19.73;;;9.80;;
45358;SDS011;31096;49.292;8.710;2022-12-05T08:13:11;19.25;;;9.30;;
45358;SDS011;31096;49.292;8.710;2022-12-05T08:18:02;18.10;;;9.03;;
45358;SDS011;31096;49.292;8.710;2022-12-05T08:22:53;18.90;;;8.93;;
45358;SDS011;31096;49.292;8.710;2022-12-05T08:27:43;19.15;;;8.77;;
45358;SDS011;31096;49.292;8.710;2022-12-05T08:32:34;16.97;;;8.43;;
45358;SDS011;31096;49.292;8.710;2022-12-05T08:37:25;19.53;;;9.80;;
45358;SDS011;31096;49.292;8.710;2022-12-05T08:42:15;18.35;;;9.30;;
45358;SDS011;31096;49.292;8.710;2022-12-05T08:47:06;16.83;;;7.90;;
45358;SDS011;31096;49.292;8.710;2022-12-05T08:51:57;16.67;;;8.60;;
45358;SDS011;31096;49.292;8.710;2022-12-05T08:56:50;16.40;;;7.47;;
45358;SDS011;31096;49.292;8.710;2022-12-05T09:01:41;18.67;;;8.63;;
45358;SDS011;31096;49.292;8.710;2022-12-05T09:06:32;15.33;;;8.17;;
45358;SDS011;31096;49.292;8.710;2022-12-05T09:11:24;18.05;;;8.63;;
45358;SDS011;31096;49.292;8.710;2022-12-05T09:16:21;19.80;;;9.38;;
45358;SDS011;31096;49.292;8.710;2022-12-05T09:21:19;15.50;;;8.13;;
45358;SDS011;31096;49.292;8.710;2022-12-05T09:26:12;18.42;;;9.23;;
45358;SDS011;31096;49.292;8.710;2022-12-05T09:31:07;18.20;;;8.43;;
45358;SDS011;31096;49.292;8.710;2022-12-05T09:36:02;18.63;;;9.45;;
45358;SDS011;31096;49.292;8.710;2022-12-05T09:40:59;19.20;;;9.00;;
45358;SDS011;31096;49.292;8.710;2022-12-05T09:46:04;17.37;;;8.90;;
45358;SDS011;31096;49.292;8.710;2022-12-05T09:51:24;20.17;;;9.95;;
45358;SDS011;31096;49.292;8.710;2022-12-05T09:56:31;17.60;;;9.27;;
45358;SDS011;31096;49.292;8.710;2022-12-05T10:01:30;17.63;;;9.45;;
45358;SDS011;31096;49.292;8.710;2022-12-05T10:06:39;20.83;;;9.20;;
45358;SDS011;31096;49.292;8.710;2022-12-05T10:12:30;18.00;;;8.17;;
45358;SDS011;31096;49.292;8.710;2022-12-05T10:22:47;14.60;;;8.03;;
45358;SDS011;31096;49.292;8.710;2022-12-05T10:27:44;19.58;;;9.48;;
45358;SDS011;31096;49.292;8.710;2022-12-05T10:37:41;19.00;;;9.00;;
45358;SDS011;31096;49.292;8.710;2022-12-05T10:42:39;18.80;;;9.48;;
45358;SDS011;31096;49.292;8.710;2022-12-05T10:47:30;17.40;;;9.40;;
45358;SDS011;31096;49.292;8.710;2022-12-05T10:52:21;18.58;;;8.75;;
45358;SDS011;31096;49.292;8.710;2022-12-05T10:57:25;21.00;;;9.43;;
45358;SDS011;31096;49.292;8.710;2022-12-05T11:02:23;19.40;;;9.15;;
45358;SDS011;31096;49.292;8.710;2022-12-05T11:12:22;17.58;;;8.98;;
45358;SDS011;31096;49.292;8.710;2022-12-05T11:17:22;18.58;;;9.60;;
45358;SDS011;31096;49.292;8.710;2022-12-05T11:22:18;18.17;;;8.35;;
45358;SDS011;31096;49.292;8.710;2022-12-05T11:32:17;19.15;;;8.98;;
45358;SDS011;31096;49.292;8.710;2022-12-05T11:37:20;22.92;;;10.43;;
45358;SDS011;31096;49.292;8.710;2022-12-05T11:42:20;20.67;;;10.03;;
45358;SDS011;31096;49.292;8.710;2022-12-05T11:47:47;18.40;;;9.13;;
45358;SDS011;31096;49.292;8.710;2022-12-05T11:52:53;20.80;;;9.83;;
45358;SDS011;31096;49.292;8.710;2022-12-05T12:08:31;20.55;;;10.82;;
45358;SDS011;31096;49.292;8.710;2022-12-05T12:40:54;19.20;;;9.77;;
45358;SDS011;31096;49.292;8.710;2022-12-05T12:50:57;20.30;;;9.63;;
45358;SDS011;31096;49.292;8.710;2022-12-05T12:56:00;18.90;;;9.70;;
45358;SDS011;31096;49.292;8.710;2022-12-05T13:01:35;18.40;;;9.10;;
45358;SDS011;31096;49.292;8.710;2022-12-05T13:11:47;22.83;;;10.77;;
45358;SDS011;31096;49.292;8.710;2022-12-05T13:16:40;15.05;;;7.93;;
45358;SDS011;31096;49.292;8.710;2022-12-05T13:21:33;19.27;;;9.47;;
45358;SDS011;31096;49.292;8.710;2022-12-05T13:26:24;18.92;;;9.45;;
45358;SDS011;31096;49.292;8.710;2022-12-05T13:31:15;16.73;;;9.07;;
45358;SDS011;31096;49.292;8.710;2022-12-05T13:41:21;16.30;;;8.40;;
45358;SDS011;31096;49.292;8.710;2022-12-05T13:46:31;18.17;;;8.85;;
45358;SDS011;31096;49.292;8.710;2022-12-05T13:51:31;18.33;;;8.40;;
45358;SDS011;31096;49.292;8.710;2022-12-05T13:56:25;21.90;;;9.07;;
45358;SDS011;31096;49.292;8.710;2022-12-05T14:01:42;17.13;;;8.38;;
45358;SDS011;31096;49.292;8.710;2022-12-05T14:11:31;16.23;;;7.90;;
45358;SDS011;31096;49.292;8.710;2022-12-05T14:21:16;18.17;;;9.00;;
45358;SDS011;31096;49.292;8.710;2022-12-05T14:42:21;19.13;;;9.10;;
45358;SDS011;31096;49.292;8.710;2022-12-05T14:47:25;15.73;;;7.60;;
45358;SDS011;31096;49.292;8.710;2022-12-05T14:52:21;13.18;;;6.45;;
45358;SDS011;31096;49.292;8.710;2022-12-05T14:57:17;13.27;;;6.20;;
45358;SDS011;31096;49.292;8.710;2022-12-05T15:02:13;12.15;;;6.50;;
45358;SDS011;31096;49.292;8.710;2022-12-05T15:07:21;9.30;;;5.40;;
45358;SDS011;31096;49.292;8.710;2022-12-05T15:17:35;10.80;;;5.80;;
45358;SDS011;31096;49.292;8.710;2022-12-05T15:22:32;10.43;;;5.80;;
45358;SDS011;31096;49.292;8.710;2022-12-05T15:27:25;10.23;;;5.22;;
45358;SDS011;31096;49.292;8.710;2022-12-05T15:32:17;10.33;;;5.50;;
45358;SDS011;31096;49.292;8.710;2022-12-05T15:42:22;9.13;;;4.50;;
45358;SDS011;31096;49.292;8.710;2022-12-05T15:47:23;8.53;;;5.07;;
45358;SDS011;31096;49.292;8.710;2022-12-05T15:52:31;10.70;;;5.28;;
45358;SDS011;31096;49.292;8.710;2022-12-05T15:57:40;8.43;;;4.57;;
45358;SDS011;31096;49.292;8.710;2022-12-05T16:02:56;11.55;;;6.00;;
45358;SDS011;31096;49.292;8.710;2022-12-05T16:07:56;9.07;;;5.07;;
45358;SDS011;31096;49.292;8.710;2022-12-05T16:12:47;10.23;;;5.47;;
45358;SDS011;31096;49.292;8.710;2022-12-05T16:17:41;11.63;;;5.70;;
45358;SDS011;31096;49.292;8.710;2022-12-05T16:22:36;15.80;;;7.40;;
45358;SDS011;31096;49.292;8.710;2022-12-05T16:27:35;13.52;;;6.75;;
45358;SDS011;31096;49.292;8.710;2022-12-05T16:32:27;11.68;;;5.90;;
45358;SDS011;31096;49.292;8.710;2022-12-05T16:37:27;9.93;;;5.07;;
45358;SDS011;31096;49.292;8.710;2022-12-05T16:42:25;12.25;;;5.82;;
45358;SDS011;31096;49.292;8.710;2022-12-05T16:47:22;8.17;;;4.77;;
45358;SDS011;31096;49.292;8.710;2022-12-05T16:52:14;11.75;;;5.65;;
45358;SDS011;31096;49.292;8.710;2022-12-05T16:57:05;14.52;;;6.25;;
45358;SDS011;31096;49.292;8.710;2022-12-05T17:01:58;16.67;;;8.23;;
45358;SDS011;31096;49.292;8.710;2022-12-05T17:06:50;13.57;;;6.90;;
45358;SDS011;31096;49.292;8.710;2022-12-05T17:11:41;8.67;;;4.70;;
45358;SDS011;31096;49.292;8.710;2022-12-05T17:16:34;7.53;;;4.45;;
45358;SDS011;31096;49.292;8.710;2022-12-05T17:21:25;10.73;;;5.97;;
45358;SDS011;31096;49.292;8.710;2022-12-05T17:26:19;9.40;;;5.35;;
45358;SDS011;31096;49.292;8.710;2022-12-05T17:31:11;9.87;;;5.80;;
45358;SDS011;31096;49.292;8.710;2022-12-05T17:36:07;10.80;;;6.50;;
45358;SDS011;31096;49.292;8.710;2022-12-05T17:40:58;11.97;;;6.50;;
45358;SDS011;31096;49.292;8.710;2022-12-05T17:45:49;12.02;;;6.78;;
45358;SDS011;31096;49.292;8.710;2022-12-05T17:50:41;10.43;;;5.97;;
45358;SDS011;31096;49.292;8.710;2022-12-05T17:55:33;12.65;;;6.40;;
45358;SDS011;31096;49.292;8.710;2022-12-05T18:00:24;11.20;;;6.47;;
45358;SDS011;31096;49.292;8.710;2022-12-05T18:05:15;10.33;;;6.37;;
45358;SDS011;31096;49.292;8.710;2022-12-05T18:10:06;10.60;;;6.22;;
45358;SDS011;31096;49.292;8.710;2022-12-05T18:15:00;10.02;;;5.70;;
45358;SDS011;31096;49.292;8.710;2022-12-05T18:19:50;10.40;;;6.63;;
45358;SDS011;31096;49.292;8.710;2022-12-05T18:24:42;12.68;;;7.07;;
45358;SDS011;31096;49.292;8.710;2022-12-05T18:29:32;9.00;;;5.47;;
45358;SDS011;31096;49.292;8.710;2022-12-05T18:34:23;13.13;;;5.77;;
45358;SDS011;31096;49.292;8.710;2022-12-05T18:39:14;10.18;;;5.72;;
45358;SDS011;31096;49.292;8.710;2022-12-05T18:44:05;11.53;;;6.47;;
45358;SDS011;31096;49.292;8.710;2022-12-05T18:48:57;8.57;;;4.85;;
45358;SDS011;31096;49.292;8.710;2022-12-05T18:53:48;9.60;;;5.50;;
45358;SDS011;31096;49.292;8.710;2022-12-05T18:58:41;11.90;;;6.15;;
45358;SDS011;31096;49.292;8.710;2022-12-05T19:03:32;9.13;;;5.13;;
45358;SDS011;31096;49.292;8.710;2022-12-05T19:08:24;11.70;;;7.15;;
45358;SDS011;31096;49.292;8.710;2022-12-05T19:13:14;13.18;;;7.28;;
45358;SDS011;31096;49.292;8.710;2022-12-05T19:18:08;10.55;;;6.88;;
45358;SDS011;31096;49.292;8.710;2022-12-05T19:22:59;9.82;;;6.03;;
45358;SDS011;31096;49.292;8.710;2022-12-05T19:27:50;8.40;;;4.93;;
45358;SDS011;31096;49.292;8.710;2022-12-05T19:32:40;9.90;;;6.13;;
45358;SDS011;31096;49.292;8.710;2022-12-05T19:37:31;11.55;;;7.22;;
45358;SDS011;31096;49.292;8.710;2022-12-05T19:42:22;14.50;;;7.43;;
45358;SDS011;31096;49.292;8.710;2022-12-05T19:47:13;12.10;;;6.72;;
45358;SDS011;31096;49.292;8.710;2022-12-05T19:52:04;9.80;;;5.43;;
45358;SDS011;31096;49.292;8.710;2022-12-05T19:56:54;10.43;;;6.28;;
45358;SDS011;31096;49.292;8.710;2022-12-05T20:01:49;9.40;;;5.30;;
45358;SDS011;31096;49.292;8.710;2022-12-05T20:06:44;10.50;;;5.68;;
45358;SDS011;31096;49.292;8.710;2022-12-05T20:11:37;10.60;;;5.73;;
45358;SDS011;31096;49.292;8.710;2022-12-05T20:16:30;12.02;;;6.32;;
45358;SDS011;31096;49.292;8.710;2022-12-05T20:21:22;11.60;;;6.07;;
45358;SDS011;31096;49.292;8.710;2022-12-05T20:26:15;12.73;;;7.28;;
45358;SDS011;31096;49.292;8.710;2022-12-05T20:31:16;11.23;;;6.35;;
45358;SDS011;31096;49.292;8.710;2022-12-05T20:36:13;10.20;;;6.40;;
45358;SDS011;31096;49.292;8.710;2022-12-05T20:41:10;11.68;;;6.53;;
45358;SDS011;31096;49.292;8.710;2022-12-05T20:46:10;10.20;;;6.07;;
45358;SDS011;31096;49.292;8.710;2022-12-05T20:51:10;10.18;;;5.72;;
45358;SDS011;31096;49.292;8.710;2022-12-05T20:56:07;10.85;;;6.03;;
45358;SDS011;31096;49.292;8.710;2022-12-05T21:01:00;11.97;;;6.67;;
45358;SDS011;31096;49.292;8.710;2022-12-05T21:05:52;11.25;;;6.95;;
45358;SDS011;31096;49.292;8.710;2022-12-05T21:10:47;9.23;;;5.73;;
45358;SDS011;31096;49.292;8.710;2022-12-05T21:15:39;14.60;;;7.32;;
45358;SDS011;31096;49.292;8.710;2022-12-05T21:20:30;12.80;;;7.73;;
45358;SDS011;31096;49.292;8.710;2022-12-05T21:25:21;11.32;;;7.28;;
45358;SDS011;31096;49.292;8.710;2022-12-05T21:30:11;17.57;;;9.70;;
45358;SDS011;31096;49.292;8.710;2022-12-05T21:35:02;20.40;;;10.70;;
45358;SDS011;31096;49.292;8.710;2022-12-05T21:39:54;17.03;;;9.00;;
45358;SDS011;31096;49.292;8.710;2022-12-05T21:44:44;14.73;;;8.77;;
45358;SDS011;31096;49.292;8.710;2022-12-05T21:49:35;14.33;;;8.27;;
45358;SDS011;31096;49.292;8.710;2022-12-05T21:54:26;13.07;;;7.20;;
45358;SDS011;31096;49.292;8.710;2022-12-05T21:59:16;11.93;;;7.18;;
45358;SDS011;31096;49.292;8.710;2022-12-05T22:04:07;12.30;;;7.17;;
45358;SDS011;31096;49.292;8.710;2022-12-05T22:08:58;13.73;;;7.90;;
45358;SDS011;31096;49.292;8.710;2022-12-05T22:13:49;14.63;;;7.40;;
45358;SDS011;31096;49.292;8.710;2022-12-05T22:18:40;13.33;;;7.00;;
45358;SDS011;31096;49.292;8.710;2022-12-05T22:23:31;12.18;;;6.35;;
45358;SDS011;31096;49.292;8.710;2022-12-05T22:28:23;14.07;;;6.65;;
45358;SDS011;31096;49.292;8.710;2022-12-05T22:33:14;11.10;;;6.80;;
45358;SDS011;31096;49.292;8.710;2022-12-05T22:38:05;9.23;;;5.33;;
45358;SDS011;31096;49.292;8.710;2022-12-05T22:42:56;11.40;;;6.13;;
45358;SDS011;31096;49.292;8.710;2022-12-05T22:47:47;12.80;;;6.50;;
45358;SDS011;31096;49.292;8.710;2022-12-05T22:52:37;9.95;;;5.97;;
45358;SDS011;31096;49.292;8.710;2022-12-05T22:57:28;10.97;;;5.97;;
45358;SDS011;31096;49.292;8.710;2022-12-05T23:02:19;10.10;;;5.57;;
45358;SDS011;31096;49.292;8.710;2022-12-05T23:07:10;9.33;;;5.57;;
45358;SDS011;31096;49.292;8.710;2022-12-05T23:12:01;11.00;;;6.40;;
45358;SDS011;31096;49.292;8.710;2022-12-05T23:16:52;10.38;;;6.03;;
45358;SDS011;31096;49.292;8.710;2022-12-05T23:21:43;11.67;;;6.20;;
45358;SDS011;31096;49.292;8.710;2022-12-05T23:26:39;10.60;;;5.90;;
45358;SDS011;31096;49.292;8.710;2022-12-05T23:31:32;13.60;;;7.10;;
45358;SDS011;31096;49.292;8.710;2022-12-05T23:36:22;10.25;;;5.60;;
45358;SDS011;31096;49.292;8.710;2022-12-05T23:41:17;9.87;;;6.20;;
45358;SDS011;31096;49.292;8.710;2022-12-05T23:46:11;10.18;;;6.20;;
45358;SDS011;31096;49.292;8.710;2022-12-05T23:51:04;9.27;;;5.03;;
45358;SDS011;31096;49.292;8.710;2022-12-05T23:56:01;8.15;;;4.95;;
